Tiempo atmosférico en la estación meteorológica de Camaleño, Fuente De, Cantabria (1090 m.)



Fecha
DESCASC
Temp. máxima en grados centígrados (hora)
DESCASC
Temp. mínima en grados centígrados (hora)
DESCASC
Temp. media en grados centígrados
DESCASC
Racha de viento máxima en m/sg (hora)
DESCASC
Velocidad máxima media en intervalos de 10 minutos(hora)
DESCASC
Precipitaciones diarias en mm
DESCASC
Precipitaciones de 00:00 a 06:00 en mm
DESCASC
Precipitaciones de 06:00 a 12:00 en mm
DESCASC
Precipitaciones de 12:00 a 18:00 en mm
DESCASC
Precipitaciones de 18:00 a 24:00 en mm
DESCASC
22-11-2020 17.4 (14:20) 5.3 (23:40) 11.3 3.89 (13:50) 1.67 (13:50) 0 0 0 0 0
21-11-2020 18.8 (14:40) 3.8 (00:00) 11.3 2.5 (12:40) 1.11 (15:40) 0.2 0.2 0 0 0
20-11-2020 12.4 (14:50) 1 (09:00) 6.7 3.33 (12:10) 1.11 (12:20) 0.2 0.2 0 0 0
19-11-2020 10.5 (13:00) 5.3 (00:00) 7.9 2.78 (13:20) 1.39 (17:00) 1.4 0 0 0.6 0.8
18-11-2020 20.8 (13:20) 9 (00:00) 14.9 10.83 (00:30) 4.17 (02:30) 0 0 0 0 0
17-11-2020 20.2 (14:20) 5.9 (00:00) 13.1 9.17 (19:30) 3.06 (11:20) 0 0 0 0 0
16-11-2020 12.1 (14:10) 4.8 (00:00) 8.5 3.61 (14:20) 1.11 (14:40) 0.2 0.2 0 0 0
15-11-2020 15.1 (15:20) 8.2 (00:00) 11.7 13.33 (12:10) 4.17 (10:20) 3.6 0 0 0.4 3.2
14-11-2020 14.7 (13:50) 9.3 (00:00) 12 12.22 (04:30) 4.72 (03:10) 0 0 0 0 0
13-11-2020 18.1 (15:10) 7.2 (00:00) 12.7 7.78 (18:40) 2.78 (19:40) 0 0 0 0 0
12-11-2020 -- (--) -- (--) -- -- (--) -- (--) -- 0 -- 0 0
11-11-2020 12.9 (13:00) 5.4 (00:00) 9.1 13.06 (16:00) 5 (15:50) 0 0 0 0 0
10-11-2020 14.3 (14:10) 4.1 (00:00) 9.2 3.61 (13:10) 1.39 (13:20) 0 0 0 0 0
09-11-2020 14.5 (13:20) 6 (00:00) 10.3 9.17 (01:00) 3.33 (11:40) 2.2 0 0 2 0.2
08-11-2020 12.8 (11:10) 9.4 (00:00) 11.1 9.72 (20:00) 3.89 (11:00) 2.4 0 1 1 0.4
07-11-2020 12.6 (11:50) 9.7 (00:00) 11.2 9.72 (01:00) 3.33 (02:50) 3 3 0 0 0
06-11-2020 15.7 (14:40) 7.5 (00:00) 11.6 12.5 (16:40) 3.33 (07:50) 11.6 0 0.2 0 11.4
05-11-2020 11.1 (14:40) 2.3 (00:00) 6.7 4.72 (23:00) 1.67 (23:00) 0 0 0 0 0
04-11-2020 5.1 (13:20) 1.2 (00:00) 3.1 7.78 (18:10) 2.5 (14:50) 5.4 0.2 1.8 2.2 1.2
03-11-2020 7.5 (00:00) 2.3 (00:00) 4.9 7.5 (13:10) 3.61 (13:20) 1 0.4 0.2 0.4 0
02-11-2020 20.8 (13:20) 7.5 (00:00) 14.1 8.89 (03:30) 3.33 (04:50) 16.2 0 0 2.8 13.4
01-11-2020 18.6 (14:40) 13.8 (00:00) 16.2 11.11 (21:30) 3.89 (23:20) 0 0 0 0 0
31-10-2020 20.3 (13:30) 11.4 (00:00) 15.8 13.33 (01:20) 4.17 (01:10) 0 0 0 0 0
30-10-2020 21.8 (13:50) 7.4 (00:00) 14.6 11.39 (23:50) 3.89 (23:10) 0 0 0 0 0
29-10-2020 19 (15:10) 4.2 (00:00) 11.6 2.78 (14:10) 1.11 (14:10) 0 0 0 0 0
28-10-2020 15.2 (14:10) 5.9 (00:00) 10.5 8.89 (01:10) 2.5 (01:40) 0 0 0 0 0
27-10-2020 11.3 (13:50) 4.3 (00:00) 7.8 11.39 (13:50) 4.72 (11:10) 1.2 0 0 1.2 0
26-10-2020 10.6 (13:30) 2.5 (00:00) 6.6 15.56 (11:50) 4.44 (12:10) 0.8 0.2 0.6 0 0
25-10-2020 12.2 (00:20) 4.4 (00:00) 8.3 11.67 (04:20) 3.89 (00:10) 12.2 2.2 5 4.4 0.6

Gráficas

Temp. máximas Temp. mínimas Temp. medias Precipitaciones Rachas de viento máximas Velocidades máximas media en intervalos de 10 minutos

Datos horarios

Fecha y hora oficial Temperatura (ºC) Velocidad del viento (km/h) Dirección del viento Racha (km/h) Dirección de racha Precipitación (mm) Presión (hPa) Tendencia (hPa) Humedad (%)
2020-11-23 23:00:00 7 0 Calma 4 Oeste 0 -- -- 60
2020-11-23 22:00:00 7.2 0 Calma 3 Oeste 0 -- -- 60
2020-11-23 21:00:00 7.3 0 Calma 4 Oeste 0 -- -- 59
2020-11-23 20:00:00 7.3 0 Calma 4 Oeste 0 -- -- 55
2020-11-23 19:00:00 7.5 0 Calma 4 Oeste 0 -- -- 53
2020-11-23 18:00:00 8.8 0 Calma 3 Oeste 0 -- -- 52
2020-11-23 17:00:00 10.9 0 Calma 7 Sudoeste 0 -- -- 49
2020-11-23 16:00:00 13.5 0 Calma 5 Sur 0 -- -- 36
2020-11-23 15:00:00 16 3 Sudoeste 9 Sudoeste 0 -- -- 27
2020-11-23 14:00:00 15.9 2 Este 6 Sudeste 0 -- -- 25
2020-11-23 13:00:00 14.8 2 Sudeste 6 Este 0 -- -- 29
2020-11-23 12:00:00 11.8 2 Este 6 Este 0 -- -- 37
2020-11-23 11:00:00 8.6 0 Calma 2 Este 0 -- -- 45
2020-11-23 10:00:00 5.8 0 Calma 2 Oeste 0 -- -- 57
2020-11-23 09:00:00 4.6 0 Calma 2 Oeste 0 -- -- 60
2020-11-23 08:00:00 4.6 0 Calma 3 Oeste 0 -- -- 58
2020-11-23 07:00:00 4.6 0 Calma 4 Oeste 0 -- -- 62
2020-11-23 06:00:00 4.6 0 Calma 3 Oeste 0 -- -- 65
2020-11-23 05:00:00 4.6 0 Calma 4 Oeste 0 -- -- 70
2020-11-23 04:00:00 4.7 0 Calma 3 Noroeste 0 -- -- 74
2020-11-23 03:00:00 4.7 0 Calma 3 Oeste 0 -- -- 76
2020-11-23 02:00:00 4.8 0 Calma 3 Noroeste 0 -- -- 78
2020-11-23 01:00:00 5.1 0 Calma 3 Oeste 0 -- -- 77
2020-11-23 00:00:00 5.4 0 Calma 3 Oeste 0 -- -- 77
2020-11-22 23:00:00 5.5 0 Calma 3 Sudoeste 0 -- -- 77
2020-11-22 22:00:00 5.9 0 Calma 3 Sudoeste 0 -- -- 75
2020-11-22 21:00:00 6.1 0 Calma 3 Oeste 0 -- -- 73
2020-11-22 20:00:00 6.8 0 Calma 4 Oeste 0 -- -- 69
2020-11-22 19:00:00 7.6 0 Calma 3 Sudoeste 0 -- -- 64
2020-11-22 18:00:00 8.8 0 Calma 3 Sur 0 -- -- 62
2020-11-22 17:00:00 10.8 0 Calma 5 Sudoeste 0 -- -- 55
2020-11-22 16:00:00 13.5 3 Sudoeste 10 Sudoeste 0 -- -- 45
2020-11-22 15:00:00 16.7 5 Sudoeste 11 Sur 0 -- -- 30
2020-11-22 14:00:00 17.2 5 Sudoeste 14 Sudoeste 0 -- -- 30
2020-11-22 13:00:00 16.6 4 Sur 11 Sur 0 -- -- 36
2020-11-22 12:00:00 13.5 0 Calma 8 Sudeste 0 -- -- 48
2020-11-22 11:00:00 10.5 0 Calma 4 Este 0 -- -- 56
2020-11-22 10:00:00 8 2 Noroeste 4 Noroeste 0 -- -- 55
2020-11-22 09:00:00 7.6 0 Calma 5 Oeste 0 -- -- 54
2020-11-22 08:00:00 7.4 0 Calma 4 Noroeste 0 -- -- 53
2020-11-22 07:00:00 7.4 0 Calma 4 Oeste 0 -- -- 49
2020-11-22 06:00:00 7.6 0 Calma 4 Noroeste 0 -- -- 50
2020-11-22 05:00:00 7.6 0 Calma 4 Noroeste 0 -- -- 47
2020-11-22 04:00:00 7.2 0 Calma 4 Oeste 0 -- -- 48
2020-11-22 03:00:00 7.1 0 Calma 4 Oeste 0 -- -- 52
2020-11-22 02:00:00 6.8 0 Calma 3 Noroeste 0 -- -- 60
2020-11-22 01:00:00 7.4 0 Calma 4 Noroeste 0 -- -- 57
2020-11-22 00:00:00 7.4 0 Calma 6 Oeste 0 -- -- 61
2020-11-21 23:00:00 7.8 0 Calma 4 Oeste 0 -- -- 57
2020-11-21 22:00:00 7.7 2 Oeste 4 Oeste 0 -- -- 60
2020-11-21 21:00:00 7.5 0 Calma 4 Oeste 0 -- -- 62
2020-11-21 20:00:00 7.4 0 Calma 3 Oeste 0 -- -- 64
2020-11-21 19:00:00 7.9 0 Calma 3 Oeste 0 -- -- 61
2020-11-21 18:00:00 9.5 0 Calma 4 Oeste 0 -- -- 58
2020-11-21 17:00:00 11 0 Calma 4 Sudoeste 0 -- -- 50
2020-11-21 16:00:00 13.6 0 Calma 9 Sur 0 -- -- 46
2020-11-21 15:00:00 18.2 3 Sudoeste 8 Sur 0 -- -- 34
2020-11-21 14:00:00 18.3 2 Sur 8 Sur 0 -- -- 41
2020-11-21 13:00:00 15.8 4 Este 9 Este 0 -- -- 42
2020-11-21 12:00:00 12.9 3 Sur 8 Sur 0 -- -- 50
2020-11-21 11:00:00 10 0 Calma 4 Noroeste 0 -- -- 57
2020-11-21 10:00:00 6.7 0 Calma 5 Noroeste 0 -- -- 75
2020-11-21 09:00:00 5.7 0 Calma 5 Oeste 0 -- -- 77
2020-11-21 08:00:00 5.7 0 Calma 4 Oeste 0 -- -- 76
2020-11-21 07:00:00 5.5 0 Calma 4 Oeste 0 -- -- 76
2020-11-21 06:00:00 5.5 0 Calma 4 Oeste 0 -- -- 77
2020-11-21 05:00:00 5.4 0 Calma 4 Oeste 0 -- -- 77
2020-11-21 04:00:00 5.2 0 Calma 4 Oeste 0.2 -- -- 77
2020-11-21 03:00:00 4.6 0 Calma 4 Oeste 0 -- -- 79
2020-11-21 02:00:00 4.1 0 Calma 2 Oeste 0 -- -- 81
2020-11-21 01:00:00 4.5 0 Calma 3 Noroeste 0 -- -- 76
2020-11-21 00:00:00 3.8 0 Calma 3 Noroeste 0 -- -- 80
2020-11-20 23:00:00 3.6 0 Calma 5 Sudoeste 0 -- -- 74
2020-11-20 22:00:00 3.5 0 Calma 3 Oeste 0 -- -- 72
2020-11-20 21:00:00 3.1 0 Calma 5 Sudoeste 0 -- -- 66
2020-11-20 20:00:00 3.5 0 Calma 5 Oeste 0 -- -- 68
2020-11-20 19:00:00 3.8 0 Calma 5 Sudoeste 0 -- -- 64
2020-11-20 18:00:00 4.7 0 Calma 5 Oeste 0 -- -- 73
2020-11-20 17:00:00 6.4 2 Sudoeste 6 Sudoeste 0 -- -- 74
2020-11-20 16:00:00 8.3 3 Sudoeste 9 Sur 0 -- -- 68
2020-11-20 15:00:00 12.4 0 Calma 5 Este 0 -- -- 60
2020-11-20 14:00:00 9.8 2 Sudeste 9 Sudoeste 0 -- -- 76
2020-11-20 13:00:00 8 0 Calma 12 Sur 0 -- -- 83
2020-11-20 12:00:00 5.9 4 Sur 11 Sudoeste 0 -- -- 90
2020-11-20 11:00:00 4.2 2 Este 6 Este 0 -- -- 99
2020-11-20 10:00:00 2.1 0 Calma 3 Noroeste 0 -- -- 100
2020-11-20 09:00:00 1 0 Calma 2 Oeste 0 -- -- 100
2020-11-20 08:00:00 1.3 0 Calma 4 Noroeste 0 -- -- 99
2020-11-20 07:00:00 2 0 Calma 4 Oeste 0 -- -- 99
2020-11-20 06:00:00 2.9 0 Calma 3 Oeste 0 -- -- 99
2020-11-20 05:00:00 3.2 0 Calma 4 Sur 0 -- -- 99
2020-11-20 04:00:00 3.9 0 Calma 3 Sudeste 0 -- -- 99
2020-11-20 03:00:00 4.3 0 Calma 4 Este 0 -- -- 99
2020-11-20 02:00:00 4.6 0 Calma 4 Este 0 -- -- 100
2020-11-20 01:00:00 4.9 0 Calma 5 Sudoeste 0.2 -- -- 100
2020-11-20 00:00:00 5.3 0 Calma 6 Este 0 -- -- 100
2020-11-19 23:00:00 5.4 0 Calma 4 Sur 0.2 -- -- 100
2020-11-19 22:00:00 5.6 0 Calma 7 Oeste 0.2 -- -- 100
2020-11-19 21:00:00 6 3 Sudoeste 7 Sudoeste 0.2 -- -- 100
2020-11-19 20:00:00 6.3 3 Oeste 7 Oeste 0 -- -- 100
2020-11-19 19:00:00 6.8 2 Sudoeste 6 Sur 0.2 -- -- 99
2020-11-19 18:00:00 7.3 0 Calma 8 Sudoeste 0.4 -- -- 98
2020-11-19 17:00:00 8 5 Sudoeste 9 Noroeste 0.2 -- -- 98
2020-11-19 16:00:00 8.5 2 Sudoeste 6 Sur 0 -- -- 97
2020-11-19 15:00:00 8.9 3 Sur 9 Sudoeste 0 -- -- 96
2020-11-19 14:00:00 9.4 4 Sudoeste 10 Sur 0 -- -- 92
2020-11-19 13:00:00 10.5 3 Sur 9 Sudoeste 0 -- -- 90
2020-11-19 12:00:00 9.7 2 Sudeste 7 Sur 0 -- -- 93
2020-11-19 11:00:00 8.9 3 Este 5 Este 0 -- -- 94
2020-11-19 10:00:00 8.4 0 Calma 9 Sudoeste 0 -- -- 92
2020-11-19 09:00:00 7.9 0 Calma 4 Oeste 0 -- -- 92
2020-11-19 08:00:00 7 0 Calma 6 Noroeste 0 -- -- 95
2020-11-19 07:00:00 6.4 2 Oeste 5 Oeste 0 -- -- 94
2020-11-19 06:00:00 6.7 2 Sudoeste 6 Sudoeste 0 -- -- 91
2020-11-19 05:00:00 7.1 0 Calma 4 Sudoeste 0 -- -- 89
2020-11-19 04:00:00 7.5 0 Calma 3 Sudoeste 0 -- -- 87
2020-11-19 03:00:00 7.9 0 Calma 4 Sudoeste 0 -- -- 85
2020-11-19 02:00:00 8.3 0 Calma 4 Sudoeste 0 -- -- 82
2020-11-19 01:00:00 8.8 2 Oeste 5 Sudoeste 0 -- -- 80
2020-11-19 00:00:00 9.3 0 Calma 4 Este 0 -- -- 78
2020-11-18 23:00:00 9.7 0 Calma 5 Oeste 0 -- -- 75
2020-11-18 22:00:00 10 0 Calma 5 Sur 0 -- -- 72
2020-11-18 21:00:00 10.8 0 Calma 5 Oeste 0 -- -- 70
2020-11-18 20:00:00 11.5 3 Sudoeste 5 Oeste 0 -- -- 68
2020-11-18 19:00:00 12.5 0 Calma 5 Sudoeste 0 -- -- 64
2020-11-18 18:00:00 14.5 3 Sudoeste 15 Sur 0 -- -- 56
2020-11-18 17:00:00 17.2 6 Sur 19 Sudoeste 0 -- -- 47
2020-11-18 16:00:00 18.7 5 Sur 26 Sur 0 -- -- 39
2020-11-18 15:00:00 20.5 9 Sur 26 Sur 0 -- -- 34
2020-11-18 14:00:00 20.6 12 Sur 32 Sur 0 -- -- 33
2020-11-18 13:00:00 20.4 7 Sur 25 Sudeste 0 -- -- 33
2020-11-18 12:00:00 18.1 5 Sudeste 18 Sur 0 -- -- 43
2020-11-18 11:00:00 16 7 Sur 31 Sur 0 -- -- 53
2020-11-18 10:00:00 13.1 6 Sur 15 Sur 0 -- -- 66
2020-11-18 09:00:00 10 6 Noroeste 23 Oeste 0 -- -- 80
2020-11-18 08:00:00 9.2 0 Calma 6 Sur 0 -- -- 84
2020-11-18 07:00:00 9.4 0 Calma 6 Noroeste 0 -- -- 80
2020-11-18 06:00:00 10.4 2 Nordeste 15 Oeste 0 -- -- 73
2020-11-18 05:00:00 11.6 5 Oeste 22 Oeste 0 -- -- 68
2020-11-18 04:00:00 12.7 6 Sudoeste 36 Sur 0 -- -- 61
2020-11-18 03:00:00 14 12 Sudoeste 35 Sudoeste 0 -- -- 53
2020-11-18 02:00:00 13.9 11 Sur 33 Sur 0 -- -- 54
2020-11-18 01:00:00 14.1 13 Sudoeste 39 Sudoeste 0 -- -- 51
2020-11-18 00:00:00 10.3 5 Sudoeste 18 Sudoeste 0 -- -- 59
2020-11-17 23:00:00 10.5 2 Sudoeste 9 Oeste 0 -- -- 63
2020-11-17 22:00:00 12.3 3 Sudoeste 18 Sudoeste 0 -- -- 54
2020-11-17 21:00:00 13.1 7 Sudeste 16 Sur 0 -- -- 49
2020-11-17 20:00:00 14.5 5 Sudeste 33 Noroeste 0 -- -- 47
2020-11-17 19:00:00 12 4 Sur 13 Sudoeste 0 -- -- 55
2020-11-17 18:00:00 12.5 2 Oeste 6 Noroeste 0 -- -- 59
2020-11-17 17:00:00 14.4 3 Oeste 11 Sur 0 -- -- 52
2020-11-17 16:00:00 16.6 3 Sudoeste 14 Sudeste 0 -- -- 44
2020-11-17 15:00:00 19.6 6 Sur 23 Sur 0 -- -- 37
2020-11-17 14:00:00 20.1 8 Sur 23 Sudeste 0 -- -- 34
2020-11-17 13:00:00 19.9 6 Sudoeste 29 Sudoeste 0 -- -- 36
2020-11-17 12:00:00 18 10 Sur 26 Sur 0 -- -- 39
2020-11-17 11:00:00 14.8 3 Noroeste 15 Sur 0 -- -- 53
2020-11-17 10:00:00 10.9 0 Calma 5 Nordeste 0 -- -- 67
2020-11-17 09:00:00 9.2 0 Calma 4 Oeste 0 -- -- 71
2020-11-17 08:00:00 8.4 3 Sudoeste 5 Noroeste 0 -- -- 72
2020-11-17 07:00:00 8 0 Calma 8 Oeste 0 -- -- 74
2020-11-17 06:00:00 7.9 3 Noroeste 7 Oeste 0 -- -- 74
2020-11-17 05:00:00 7.4 2 Oeste 5 Oeste 0 -- -- 77
2020-11-17 04:00:00 6.9 2 Oeste 5 Noroeste 0 -- -- 79
2020-11-17 03:00:00 6.7 0 Calma 4 Oeste 0 -- -- 77
2020-11-17 02:00:00 6.5 0 Calma 5 Oeste 0 -- -- 80
2020-11-17 01:00:00 6.2 0 Calma 4 Oeste 0 -- -- 80
2020-11-17 00:00:00 5.9 0 Calma 5 Oeste 0 -- -- 81
2020-11-16 23:00:00 5.8 0 Calma 3 Oeste 0 -- -- 80
2020-11-16 22:00:00 5.4 0 Calma 4 Oeste 0 -- -- 84
2020-11-16 21:00:00 5.4 0 Calma 4 Oeste 0 -- -- 90
2020-11-16 20:00:00 5.4 0 Calma 3 Oeste 0 -- -- 91
2020-11-16 19:00:00 6.1 0 Calma 3 Sudoeste 0 -- -- 94
2020-11-16 18:00:00 7.2 0 Calma 4 Sudoeste 0 -- -- 91
2020-11-16 17:00:00 9.2 0 Calma 6 Sur 0 -- -- 86
2020-11-16 16:00:00 10.8 0 Calma 6 Sur 0 -- -- 80
2020-11-16 15:00:00 11.7 2 Sudeste 13 Oeste 0 -- -- 75
2020-11-16 14:00:00 12 4 Sur 10 Sudeste 0 -- -- 74
2020-11-16 13:00:00 10.1 3 Sudeste 9 Sur 0 -- -- 81
2020-11-16 12:00:00 8.6 2 Este 8 Este 0 -- -- 88
2020-11-16 11:00:00 6.8 3 Este 6 Sudeste 0 -- -- 100
2020-11-16 10:00:00 5.1 0 Calma 5 Este 0 -- -- 100
2020-11-16 09:00:00 4.9 0 Calma 2 Este 0 -- -- 100
2020-11-16 08:00:00 5 0 Calma 3 Oeste 0 -- -- 100
2020-11-16 07:00:00 5.5 0 Calma 3 Oeste 0 -- -- 100
2020-11-16 06:00:00 5.8 0 Calma 3 Sur 0 -- -- 99
2020-11-16 05:00:00 6.8 0 Calma 5 Nordeste 0 -- -- 100
2020-11-16 04:00:00 7.1 0 Calma 5 Sur 0 -- -- 100
2020-11-16 03:00:00 7.4 0 Calma 5 Sudoeste 0.2 -- -- 100
2020-11-16 02:00:00 7.6 0 Calma 6 Sudoeste 0 -- -- 100
2020-11-16 01:00:00 8 0 Calma 4 Sudoeste 0 -- -- 99
2020-11-16 00:00:00 8.2 0 Calma 4 Sudoeste 0.6 -- -- 99
2020-11-15 23:00:00 8.4 0 Calma 5 Sur 0 -- -- 98
2020-11-15 22:00:00 8.8 2 Nordeste 7 Sur 0.2 -- -- 97
2020-11-15 21:00:00 9.5 0 Calma 5 Sudoeste 0.2 -- -- 98
2020-11-15 20:00:00 9.7 0 Calma 6 Sudoeste 1.2 -- -- 97
2020-11-15 19:00:00 10.3 2 Sudoeste 9 Sudoeste 1 -- -- 95
2020-11-15 18:00:00 11.4 3 Oeste 22 Este 0.2 -- -- 91
2020-11-15 17:00:00 13.9 8 Sur 30 Sur 0 -- -- 75
2020-11-15 16:00:00 14.7 8 Sur 31 Sur 0 -- -- 68
2020-11-15 15:00:00 15 6 Sudeste 28 Sur 0 -- -- 67
2020-11-15 14:00:00 14.3 10 Sudeste 27 Sur 0 -- -- 72
2020-11-15 13:00:00 14.2 9 Sudeste 48 Nordeste 0.2 -- -- 72
2020-11-15 12:00:00 14.6 9 Este 39 Este 0 -- -- 68
2020-11-15 11:00:00 14.5 12 Este 37 Este 0 -- -- 67
2020-11-15 10:00:00 14.5 10 Sudeste 32 Sudoeste 0 -- -- 66
2020-11-15 09:00:00 14.2 14 Este 42 Este 0 -- -- 65
2020-11-15 08:00:00 13.8 9 Este 38 Noroeste 0 -- -- 69
2020-11-15 07:00:00 13.7 9 Este 28 Nordeste 0 -- -- 69
2020-11-15 06:00:00 13.4 8 Sudeste 34 Este 0 -- -- 70
2020-11-15 05:00:00 13.1 5 Sudeste 35 Sudoeste 0 -- -- 70
2020-11-15 04:00:00 12.4 7 Sudeste 24 Norte 0 -- -- 75
2020-11-15 03:00:00 11.4 5 Sur 13 Sudoeste 0 -- -- 83
2020-11-15 02:00:00 11.5 3 Sur 22 Sur 0 -- -- 85
2020-11-15 01:00:00 12.1 6 Sudeste 14 Este 0 -- -- 75
2020-11-15 00:00:00 11.7 5 Sudeste 14 Este 0 -- -- 74
2020-11-14 23:00:00 12.1 5 Sur 22 Sudoeste 0 -- -- 67
2020-11-14 22:00:00 12.2 6 Sur 29 Noroeste 0 -- -- 65
2020-11-14 21:00:00 12.1 10 Sudoeste 33 Sur 0 -- -- 67
2020-11-14 20:00:00 11.5 5 Sur 25 Sudoeste 0 -- -- 71
2020-11-14 19:00:00 12 5 Este 25 Oeste 0 -- -- 70
2020-11-14 18:00:00 12.1 6 Sudeste 32 Norte 0 -- -- 67
2020-11-14 17:00:00 11.5 6 Sur 23 Sur 0 -- -- 71
2020-11-14 16:00:00 11.9 8 Sur 27 Sur 0 -- -- 73
2020-11-14 15:00:00 12.9 9 Oeste 31 Noroeste 0 -- -- 66
2020-11-14 14:00:00 14.2 8 Este 38 Sudoeste 0 -- -- 59
2020-11-14 13:00:00 13.9 7 Sudeste 44 Norte 0 -- -- 58
2020-11-14 12:00:00 13.4 8 Oeste 40 Sudoeste 0 -- -- 57
2020-11-14 11:00:00 12.2 9 Este 39 Sudeste 0 -- -- 60
2020-11-14 10:00:00 10.6 14 Sur 37 Sudoeste 0 -- -- 60
2020-11-14 09:00:00 10 11 Sudoeste 35 Oeste 0 -- -- 66
2020-11-14 08:00:00 9.5 9 Sur 35 Noroeste 0 -- -- 66
2020-11-14 07:00:00 9.6 9 Sudoeste 35 Sur 0 -- -- 63
2020-11-14 06:00:00 9.9 13 Sur 40 Sur 0 -- -- 61
2020-11-14 05:00:00 9.7 10 Sudoeste 44 Sur 0 -- -- 60
2020-11-14 04:00:00 9.6 15 Sudoeste 39 Sur 0 -- -- 64
2020-11-14 03:00:00 9.7 14 Sur 40 Sur 0 -- -- 62
2020-11-14 02:00:00 9.7 14 Sur 41 Sur 0 -- -- 61
2020-11-14 01:00:00 9.3 6 Oeste 17 Noroeste 0 -- -- 52
2020-11-14 00:00:00 11.7 7 Sur 26 Sur 0 -- -- 35
2020-11-13 23:00:00 9.5 3 Oeste 18 Sudoeste 0 -- -- 45
2020-11-13 22:00:00 10.8 8 Sudoeste 24 Sudoeste 0 -- -- 40
2020-11-13 21:00:00 9.2 3 Noroeste 9 Noroeste 0 -- -- 46
2020-11-13 20:00:00 11.1 5 Sudoeste 24 Sudoeste 0 -- -- 38
2020-11-13 19:00:00 12.5 9 Sudoeste 28 Sudoeste 0 -- -- 38
2020-11-13 18:00:00 12.9 6 Sudoeste 18 Sur 0 -- -- 42
2020-11-13 17:00:00 13.5 6 Sudeste 18 Sur 0 -- -- 46
2020-11-13 16:00:00 15.5 3 Este 15 Sur 0 -- -- 40
2020-11-13 15:00:00 18 3 Noroeste 22 Sudoeste 0 -- -- 31
2020-11-13 14:00:00 17 7 Sudeste 23 Sur 0 -- -- 30
2020-11-13 13:00:00 16.7 7 Sudeste 24 Sur 0 -- -- 35
2020-11-13 12:00:00 15.2 9 Sur 25 Sur 0 -- -- 36
2020-11-13 11:00:00 12.8 4 Sur 18 Sur 0 -- -- 41
2020-11-13 10:00:00 9.6 2 Noroeste 15 Norte 0 -- -- 47
2020-11-13 09:00:00 7.3 2 Nordeste 5 Noroeste 0 -- -- 55
2020-11-13 08:00:00 7.2 0 Calma 4 Sudoeste 0 -- -- 52
2020-11-13 07:00:00 7.7 0 Calma 4 Oeste 0 -- -- 51
2020-11-13 06:00:00 7.7 0 Calma 4 Noroeste 0 -- -- 44
2020-11-13 05:00:00 9.1 2 Oeste 5 Sudoeste 0 -- -- 41
2020-11-13 04:00:00 10 2 Sudoeste 8 Oeste 0 -- -- 38
2020-11-13 03:00:00 10.5 3 Oeste 10 Noroeste 0 -- -- 34
2020-11-13 02:00:00 12.6 5 Sudoeste 25 Sur 0 -- -- 26
2020-11-13 01:00:00 11 3 Sudoeste 13 Sudoeste 0 -- -- 27
2020-11-13 00:00:00 10.9 2 Noroeste 10 Oeste 0 -- -- 30
2020-11-12 23:00:00 9.6 3 Sudoeste 9 Noroeste 0 -- -- 48
2020-11-12 22:00:00 10.2 5 Noroeste 9 Noroeste 0 -- -- 49
2020-11-12 21:00:00 11 3 Sudoeste 12 Sur 0 -- -- 55
2020-11-12 20:00:00 13.1 4 Oeste 18 Noroeste 0 -- -- 45
2020-11-12 19:00:00 12.9 5 Sudoeste 16 Sur 0 -- -- 61
2020-11-12 18:00:00 12.9 4 Este 12 Sudeste 0 -- -- 63
2020-11-12 17:00:00 14.4 4 Sudeste 12 Sudoeste 0 -- -- 58
2020-11-12 16:00:00 16.6 4 Sudoeste 21 Sudoeste 0 -- -- 49
2020-11-12 15:00:00 18.3 4 Sudeste 15 Este 0 -- -- 47
2020-11-12 14:00:00 18.6 5 Sudeste 17 Sudoeste 0 -- -- 49
2020-11-12 13:00:00 18.3 6 Sur -- -- -- -- -- 52
2020-11-12 12:00:00 -- -- -- -- -- -- -- -- --
2020-11-12 11:00:00 13.2 6 Sudoeste 23 Sur 0 -- -- 70
2020-11-12 10:00:00 10 0 Calma 4 Este 0 -- -- 85
2020-11-12 09:00:00 9.8 0 Calma 4 Noroeste 0 -- -- 88
2020-11-12 08:00:00 9.5 2 Noroeste 9 Noroeste 0 -- -- 84
2020-11-12 07:00:00 9.6 6 Noroeste 16 Oeste 0 -- -- 83
2020-11-12 06:00:00 8.9 4 Oeste 13 Este 0 -- -- 91
2020-11-12 05:00:00 8.8 0 Calma 5 Oeste 0 -- -- 93
2020-11-12 04:00:00 8.5 2 Oeste 7 Oeste 0 -- -- 94
2020-11-12 03:00:00 8.6 3 Noroeste 10 Noroeste 0 -- -- 92
2020-11-12 02:00:00 8.5 0 Calma 3 Norte 0 -- -- 88
2020-11-12 01:00:00 8.2 0 Calma 5 Oeste 0 -- -- 86
2020-11-12 00:00:00 8.1 2 Norte 27 Sudoeste 0 -- -- 86
2020-11-11 23:00:00 8.2 3 Oeste 9 Oeste 0 -- -- 89
2020-11-11 22:00:00 9.2 4 Noroeste 30 Sudeste 0 -- -- 77
2020-11-11 21:00:00 9.7 6 Oeste 22 Sudoeste 0 -- -- 64
2020-11-11 20:00:00 9.9 9 Sudoeste 35 Sudoeste 0 -- -- 59
2020-11-11 19:00:00 10 6 Oeste 27 Sudoeste 0 -- -- 54
2020-11-11 18:00:00 10 8 Sudoeste 32 Sudoeste 0 -- -- 55
2020-11-11 17:00:00 10.3 10 Sudoeste 39 Oeste 0 -- -- 57
2020-11-11 16:00:00 11.4 16 Sudoeste 47 Sudoeste 0 -- -- 53
2020-11-11 15:00:00 12.7 16 Sudoeste 44 Sudoeste 0 -- -- 48
2020-11-11 14:00:00 11.3 14 Sur 37 Sudoeste 0 -- -- 59
2020-11-11 13:00:00 12.9 13 Sur 34 Sur 0 -- -- 51
2020-11-11 12:00:00 11.4 13 Sur 35 Sur 0 -- -- 56
2020-11-11 11:00:00 11 10 Sur 31 Sur 0 -- -- 57
2020-11-11 10:00:00 10.2 8 Sudeste 28 Sur 0 -- -- 62
2020-11-11 09:00:00 10.7 8 Sur 32 Sur 0 -- -- 53
2020-11-11 08:00:00 6.3 4 Oeste 19 Sur 0 -- -- 72
2020-11-11 07:00:00 5.5 0 Calma 4 Sudoeste 0 -- -- 75
2020-11-11 06:00:00 6.3 2 Sudoeste 8 Oeste 0 -- -- 69
2020-11-11 05:00:00 7.9 2 Sur 18 Sur 0 -- -- 63
2020-11-11 04:00:00 7.4 2 Oeste 18 Sur 0 -- -- 62
2020-11-11 03:00:00 8.1 6 Sur 21 Este 0 -- -- 48
2020-11-11 02:00:00 5.6 3 Noroeste 7 Noroeste 0 -- -- 69
2020-11-11 01:00:00 5.9 0 Calma 9 Norte 0 -- -- 70
2020-11-11 00:00:00 5.6 2 Este 9 Noroeste 0 -- -- 69
2020-11-10 23:00:00 5.7 0 Calma 5 Oeste 0 -- -- 74
2020-11-10 22:00:00 5.6 0 Calma 4 Sudoeste 0 -- -- 79
2020-11-10 21:00:00 5.5 0 Calma 5 Sudoeste 0 -- -- 81
2020-11-10 20:00:00 6.3 0 Calma 4 Oeste 0 -- -- 86
2020-11-10 19:00:00 7 2 Oeste 6 Oeste 0 -- -- 88
2020-11-10 18:00:00 8.2 0 Calma 4 Sudoeste 0 -- -- 84
2020-11-10 17:00:00 10.5 2 Sudoeste 6 Sur 0 -- -- 75
2020-11-10 16:00:00 12.7 3 Sur 13 Sur 0 -- -- 65
2020-11-10 15:00:00 14.3 3 Sur 11 Sur 0 -- -- 61
2020-11-10 14:00:00 13.9 3 Sudeste 13 Sudoeste 0 -- -- 61
2020-11-10 13:00:00 13.4 3 Sudeste 10 Nordeste 0 -- -- 65
2020-11-10 12:00:00 11.6 3 Sudoeste 10 Sudoeste 0 -- -- 75
2020-11-10 11:00:00 7.7 3 Este 6 Este 0 -- -- 91
2020-11-10 10:00:00 4.9 0 Calma 3 Este 0 -- -- 100
2020-11-10 09:00:00 4.2 0 Calma 3 Oeste 0 -- -- 99
2020-11-10 08:00:00 4.6 0 Calma 3 Sudoeste 0 -- -- 97
2020-11-10 07:00:00 6 0 Calma 2 Sudoeste 0 -- -- 100
2020-11-10 06:00:00 6 0 Calma 2 Sudoeste 0 -- -- 100
2020-11-10 05:00:00 5.9 0 Calma 2 Sudoeste 0 -- -- 100
2020-11-10 04:00:00 5.5 0 Calma 4 Sudoeste 0 -- -- 100
2020-11-10 03:00:00 4.6 0 Calma 2 Oeste 0 -- -- 99
2020-11-10 02:00:00 5.1 0 Calma 3 Sudoeste 0 -- -- 99
2020-11-10 01:00:00 5.4 0 Calma 3 Oeste 0 -- -- 99
2020-11-10 00:00:00 6 0 Calma 5 Sudoeste 0 -- -- 99
2020-11-09 23:00:00 6.7 0 Calma 2 Sudoeste 0.2 -- -- 100
2020-11-09 22:00:00 6.5 0 Calma 4 Oeste 0 -- -- 99
2020-11-09 21:00:00 6.3 0 Calma 5 Sudoeste 0 -- -- 99
2020-11-09 20:00:00 6.3 0 Calma 5 Oeste 0 -- -- 97
2020-11-09 19:00:00 7 2 Oeste 7 Oeste 0 -- -- 94
2020-11-09 18:00:00 9 2 Oeste 5 Sudoeste 1.8 -- -- 92
2020-11-09 17:00:00 11.3 3 Sudeste 11 Sudoeste 0.2 -- -- 72
2020-11-09 16:00:00 12.1 3 Sudeste 13 Sur 0 -- -- 62
2020-11-09 15:00:00 12.7 5 Sudeste 17 Sudoeste 0 -- -- 60
2020-11-09 14:00:00 13.3 4 Sudeste 17 Este 0 -- -- 60
2020-11-09 13:00:00 13.7 7 Sur 24 Sudoeste 0 -- -- 58
2020-11-09 12:00:00 12.9 7 Sur 33 Sur 0 -- -- 61
2020-11-09 11:00:00 11.1 5 Sudoeste 19 Sudoeste 0 -- -- 65
2020-11-09 10:00:00 10.3 4 Sudeste 18 Sur 0 -- -- 71
2020-11-09 09:00:00 8 3 Sur 16 Sur 0 -- -- 81
2020-11-09 08:00:00 8.6 5 Sudeste 17 Sur 0 -- -- 77
2020-11-09 07:00:00 9.8 7 Sur 22 Sudoeste 0 -- -- 65
2020-11-09 06:00:00 10.1 8 Norte 28 Oeste 0 -- -- 64
2020-11-09 05:00:00 10.2 9 Sudeste 32 Noroeste 0 -- -- 61
2020-11-09 04:00:00 9.6 5 Norte 24 Oeste 0 -- -- 66
2020-11-09 03:00:00 9.8 7 Noroeste 28 Sur 0 -- -- 68
2020-11-09 02:00:00 10.1 5 Sudeste 26 Este 0 -- -- 67
2020-11-09 01:00:00 10.4 10 Oeste 33 Noroeste 0 -- -- 68
2020-11-09 00:00:00 10.2 5 Norte 15 Este 0 -- -- 69
2020-11-08 23:00:00 9.7 3 Sur 25 Norte 0 -- -- 83
2020-11-08 22:00:00 10.5 5 Nordeste 21 Noroeste 0.2 -- -- 75
2020-11-08 21:00:00 9.6 2 Sur 15 Noroeste 0.2 -- -- 90
2020-11-08 20:00:00 11.3 10 Noroeste 35 Noroeste 0 -- -- 69
2020-11-08 19:00:00 10.6 4 Sudoeste 27 Sudoeste 0 -- -- 76
2020-11-08 18:00:00 10.9 6 Norte 28 Sur 0 -- -- 74
2020-11-08 17:00:00 11.1 7 Este 21 Noroeste 0 -- -- 72
2020-11-08 16:00:00 10.9 8 Sur 24 Nordeste 0 -- -- 71
2020-11-08 15:00:00 11.2 9 Sudeste 26 Sudeste 0.2 -- -- 70
2020-11-08 14:00:00 10.5 5 Sudeste 15 Sur 0.4 -- -- 83
2020-11-08 13:00:00 11.3 4 Norte 24 Noroeste 0.4 -- -- 77
2020-11-08 12:00:00 12 9 Nordeste 29 Noroeste 0 -- -- 72
2020-11-08 11:00:00 12.4 14 Norte 32 Noroeste 0 -- -- 72
2020-11-08 10:00:00 10.8 9 Este 32 Nordeste 0 -- -- 72
2020-11-08 09:00:00 10 8 Norte 26 Norte 0.2 -- -- 76
2020-11-08 08:00:00 9.9 5 Este 23 Norte 0.4 -- -- 81
2020-11-08 07:00:00 10.1 8 Sudeste 19 Oeste 0.4 -- -- 79
2020-11-08 06:00:00 10.6 4 Sudeste 14 Noroeste 0 -- -- 76
2020-11-08 05:00:00 10.8 4 Nordeste 24 Norte 0 -- -- 73
2020-11-08 04:00:00 10.8 7 Sur 23 Sudoeste 0 -- -- 73
2020-11-08 03:00:00 10.5 4 Oeste 16 Sur 0 -- -- 78
2020-11-08 02:00:00 11.2 6 Noroeste 19 Noroeste 0 -- -- 68
2020-11-08 01:00:00 11 9 Noroeste 26 Sur 0 -- -- 67
2020-11-08 00:00:00 10.7 7 Sudeste 18 Sudeste 0 -- -- 71
2020-11-07 23:00:00 10.7 7 Sudeste 26 Sudeste 0 -- -- 71
2020-11-07 22:00:00 10.8 5 Oeste 16 Sudoeste 0 -- -- 71
2020-11-07 21:00:00 10.9 5 Sudeste 16 Sur 0 -- -- 68
2020-11-07 20:00:00 10.7 4 Sudeste 21 Sur 0 -- -- 74
2020-11-07 19:00:00 10.8 6 Sudeste 23 Sur 0 -- -- 72
2020-11-07 18:00:00 11 6 Este 20 Sur 0 -- -- 67
2020-11-07 17:00:00 11.6 7 Sudeste 23 Sur 0 -- -- 67
2020-11-07 16:00:00 12.6 5 Sudeste 22 Sur 0 -- -- 63
2020-11-07 15:00:00 12.2 8 Este 23 Noroeste 0 -- -- 61
2020-11-07 14:00:00 11.6 7 Este 22 Sur 0 -- -- 75
2020-11-07 13:00:00 12.4 6 Sur 20 Oeste 0 -- -- 68
2020-11-07 12:00:00 12.4 5 Este 16 Este 0 -- -- 72
2020-11-07 11:00:00 11.4 3 Sudeste 16 Sur 0 -- -- 72
2020-11-07 10:00:00 10.8 3 Este 19 Nordeste 0 -- -- 80
2020-11-07 09:00:00 11.1 6 Noroeste 19 Noroeste 0 -- -- 77
2020-11-07 08:00:00 11.3 5 Noroeste 22 Noroeste 0 -- -- 75
2020-11-07 07:00:00 11.6 9 Noroeste 29 Noroeste 0 -- -- 75
2020-11-07 06:00:00 11.1 8 Noroeste 19 Noroeste 0.2 -- -- 80
2020-11-07 05:00:00 11.3 6 Noroeste 18 Norte 0 -- -- 75
2020-11-07 04:00:00 11.5 6 Oeste 19 Noroeste 0 -- -- 79
2020-11-07 03:00:00 12.4 6 Noroeste 29 Oeste 0 -- -- 71
2020-11-07 02:00:00 10.8 7 Noroeste 26 Noroeste 1.8 -- -- 81
2020-11-07 01:00:00 11.2 9 Noroeste 35 Oeste 1 -- -- 83
2020-11-07 00:00:00 9.8 5 Nordeste 29 Oeste 2.2 -- -- 91
2020-11-06 23:00:00 9.4 7 Noroeste 30 Sur 9 -- -- 92
2020-11-06 22:00:00 14.1 4 Oeste 31 Este 0.2 -- -- 77
2020-11-06 21:00:00 14.7 4 Noroeste 19 Este 0 -- -- 66
2020-11-06 20:00:00 14.6 4 Oeste 21 Nordeste 0 -- -- 67
2020-11-06 19:00:00 14.5 4 Este 23 Nordeste 0 -- -- 65
2020-11-06 18:00:00 14.8 4 Noroeste 24 Este 0 -- -- 67
2020-11-06 17:00:00 15.4 2 Sudoeste 45 Este 0 -- -- 62
2020-11-06 16:00:00 15.6 9 Este 31 Nordeste 0 -- -- 57
2020-11-06 15:00:00 15.5 6 Sudoeste 14 Sudoeste 0 -- -- 62
2020-11-06 14:00:00 14.6 3 Este 9 Nordeste 0 -- -- 70
2020-11-06 13:00:00 14.6 8 Sudoeste 15 Sudoeste 0 -- -- 69
2020-11-06 12:00:00 13.9 5 Sudoeste 15 Sur 0.2 -- -- 73
2020-11-06 11:00:00 10.8 3 Oeste 9 Norte 0 -- -- 86
2020-11-06 10:00:00 10.2 0 Calma 13 Sur 0 -- -- 87
2020-11-06 09:00:00 10.6 2 Norte 25 Noroeste 0 -- -- 83
2020-11-06 08:00:00 11.9 11 Noroeste 34 Sudoeste 0 -- -- 70
2020-11-06 07:00:00 11.5 7 Noroeste 29 Noroeste 0 -- -- 76
2020-11-06 06:00:00 7.6 3 Noroeste 8 Sudoeste 0 -- -- 99
2020-11-06 05:00:00 7.6 2 Noroeste 5 Noroeste 0 -- -- 98
2020-11-06 04:00:00 8.1 0 Calma 7 Oeste 0 -- -- 97
2020-11-06 03:00:00 8.3 3 Oeste 7 Sudoeste 0 -- -- 98
2020-11-06 02:00:00 8.7 0 Calma 13 Oeste 0 -- -- 96
2020-11-06 01:00:00 9.3 4 Oeste 10 Noroeste 0 -- -- 90
2020-11-06 00:00:00 10.2 2 Noroeste 15 Sur 0 -- -- 83
2020-11-05 23:00:00 9.3 6 Noroeste 17 Noroeste 0 -- -- 86
2020-11-05 22:00:00 8.8 3 Oeste 9 Noroeste 0 -- -- 92
2020-11-05 21:00:00 8.7 2 Sur 5 Sur 0 -- -- 93
2020-11-05 20:00:00 8.6 2 Oeste 5 Oeste 0 -- -- 92
2020-11-05 19:00:00 9.5 0 Calma 9 Noroeste 0 -- -- 88
2020-11-05 18:00:00 9.5 2 Sur 6 Oeste 0 -- -- 89
2020-11-05 17:00:00 10 0 Calma 5 Oeste 0 -- -- 89
2020-11-05 16:00:00 10.4 0 Calma 4 Sudoeste 0 -- -- 86
2020-11-05 15:00:00 11 0 Calma 4 Noroeste 0 -- -- 84
2020-11-05 14:00:00 10.1 3 Noroeste 6 Oeste 0 -- -- 80
2020-11-05 13:00:00 9.2 0 Calma 5 Oeste 0 -- -- 82
2020-11-05 12:00:00 8.5 2 Norte 6 Este 0 -- -- 84
2020-11-05 11:00:00 5.8 0 Calma 6 Noroeste 0 -- -- 100
2020-11-05 10:00:00 4.3 2 Norte 6 Noroeste 0 -- -- 100
2020-11-05 09:00:00 3.2 2 Noroeste 5 Noroeste 0 -- -- 100
2020-11-05 08:00:00 3.1 0 Calma 5 Oeste 0 -- -- 100
2020-11-05 07:00:00 3.7 0 Calma 4 Sudoeste 0 -- -- 100
2020-11-05 06:00:00 3.6 2 Este 6 Sur 0 -- -- 100
2020-11-05 05:00:00 3.4 3 Sudeste 5 Noroeste 0 -- -- 100
2020-11-05 04:00:00 2.8 3 Oeste 6 Sudoeste 0 -- -- 100
2020-11-05 03:00:00 2.5 0 Calma 4 Sur 0 -- -- 100
2020-11-05 02:00:00 2.4 2 Sur 4 Oeste 0 -- -- 100
2020-11-05 01:00:00 2.4 0 Calma 5 Noroeste 0 -- -- 100
2020-11-05 00:00:00 2.3 0 Calma 4 Sudoeste 0 -- -- 100
2020-11-04 23:00:00 2.1 0 Calma 8 Sur 0.2 -- -- 99
2020-11-04 22:00:00 2 0 Calma 8 Sudoeste 0.4 -- -- 98
2020-11-04 21:00:00 2.1 3 Sudoeste 9 Sur 0.2 -- -- 97
2020-11-04 20:00:00 2.2 3 Oeste 17 Sur 0.4 -- -- 95
2020-11-04 19:00:00 2.8 7 Sur 28 Sur 0 -- -- 85
2020-11-04 18:00:00 2.8 8 Sur 24 Oeste 1 -- -- 88
2020-11-04 17:00:00 3.7 5 Sudeste 22 Sudoeste 0.8 -- -- 85
2020-11-04 16:00:00 4.4 6 Sudoeste 25 Sudoeste 0.2 -- -- 88
2020-11-04 15:00:00 4.7 7 Sudoeste 20 Este 0.2 -- -- 83
2020-11-04 14:00:00 4.3 6 Sur 18 Sudoeste 0 -- -- 91
2020-11-04 13:00:00 4.4 5 Sudeste 17 Oeste 0 -- -- 88
2020-11-04 12:00:00 4 8 Sudoeste 23 Sudoeste 0.2 -- -- 92
2020-11-04 11:00:00 2.6 2 Norte 8 Norte 0.4 -- -- 98
2020-11-04 10:00:00 2.1 0 Calma 6 Noroeste 0.2 -- -- 99
2020-11-04 09:00:00 1.5 0 Calma 4 Noroeste 0.2 -- -- 100
2020-11-04 08:00:00 1.3 0 Calma 3 Sur 0.8 -- -- 99
2020-11-04 07:00:00 1.6 0 Calma 4 Sur 0 -- -- 100
2020-11-04 06:00:00 1.6 0 Calma 2 Sudeste 0 -- -- 100
2020-11-04 05:00:00 1.3 0 Calma 5 Sudoeste 0 -- -- 100
2020-11-04 04:00:00 1.3 0 Calma 4 Sur 0 -- -- 98
2020-11-04 03:00:00 1.9 0 Calma 4 Sudoeste 0.2 -- -- 98
2020-11-04 02:00:00 2.1 0 Calma 4 Sur 0 -- -- 100
2020-11-04 01:00:00 2.1 0 Calma 3 Sudoeste 0 -- -- 99
2020-11-04 00:00:00 2.3 0 Calma 4 Sudeste 0 -- -- 99
2020-11-03 23:00:00 2.5 0 Calma 3 Sudoeste 0 -- -- 99
2020-11-03 22:00:00 2.8 0 Calma 4 Sur 0 -- -- 98
2020-11-03 21:00:00 3.2 0 Calma 4 Sudoeste 0 -- -- 97
2020-11-03 20:00:00 3.5 0 Calma 7 Sur 0 -- -- 96
2020-11-03 19:00:00 4.1 3 Sudeste 8 Sur 0 -- -- 96
2020-11-03 18:00:00 4.7 0 Calma 6 Sur 0 -- -- 92
2020-11-03 17:00:00 5.4 2 Este 21 Nordeste 0.2 -- -- 90
2020-11-03 16:00:00 6 3 Este 11 Sudoeste 0.2 -- -- 88
2020-11-03 15:00:00 7.4 3 Este 17 Este 0 -- -- 85
2020-11-03 14:00:00 7 8 Este 27 Este 0 -- -- 77
2020-11-03 13:00:00 7 0 Calma 7 Este 0 -- -- 93
2020-11-03 12:00:00 6.5 0 Calma 6 Este 0.2 -- -- 93
2020-11-03 11:00:00 5.9 0 Calma 6 Este 0 -- -- 90
2020-11-03 10:00:00 3.7 0 Calma 5 Sudoeste 0 -- -- 100
2020-11-03 09:00:00 2.5 0 Calma 5 Noroeste 0 -- -- 99
2020-11-03 08:00:00 2.8 0 Calma 5 Sudoeste 0 -- -- 97
2020-11-03 07:00:00 4.1 0 Calma 5 Sudoeste 0 -- -- 97
2020-11-03 06:00:00 5.6 0 Calma 8 Sudoeste 0 -- -- 98
2020-11-03 05:00:00 6.3 2 Sudeste 19 Este 0 -- -- 98
2020-11-03 04:00:00 6.8 0 Calma 6 Sur 0.2 -- -- 100
2020-11-03 03:00:00 7.1 0 Calma 4 Sur 0 -- -- 100
2020-11-03 02:00:00 7.2 0 Calma 4 Sur 0 -- -- 100
2020-11-03 01:00:00 7.4 2 Sur 5 Sur 0.2 -- -- 100
2020-11-03 00:00:00 7.5 0 Calma 4 Sudoeste 0.4 -- -- 99
2020-11-02 23:00:00 7.6 3 Oeste 6 Oeste 1.4 -- -- 99
2020-11-02 22:00:00 7.9 0 Calma 6 Sudoeste 2.4 -- -- 99
2020-11-02 21:00:00 8.2 4 Sudoeste 8 Oeste 2.6 -- -- 98
2020-11-02 20:00:00 8.7 4 Sudoeste 10 Sur 3.4 -- -- 98
2020-11-02 19:00:00 9.3 4 Oeste 10 Sudoeste 3.2 -- -- 97
2020-11-02 18:00:00 10.4 3 Oeste 9 Sur 1.2 -- -- 95
2020-11-02 17:00:00 11.8 4 Sudoeste 11 Sudoeste 1.6 -- -- 92
2020-11-02 16:00:00 13.9 5 Sudoeste 18 Sudoeste 0 -- -- 85
2020-11-02 15:00:00 17.6 2 Noroeste 12 Este 0 -- -- 60
2020-11-02 14:00:00 18.5 4 Sudeste 19 Sur 0 -- -- 58
2020-11-02 13:00:00 20.4 5 Sur 20 Sur 0 -- -- 53
2020-11-02 12:00:00 18.7 5 Sudoeste 20 Oeste 0 -- -- 55
2020-11-02 11:00:00 16.1 9 Sur 30 Sur 0 -- -- 64
2020-11-02 10:00:00 14.7 10 Sur 28 Sudoeste 0 -- -- 68
2020-11-02 09:00:00 13.7 8 Sur 26 Sur 0 -- -- 70
2020-11-02 08:00:00 13.3 7 Sur 27 Sudoeste 0 -- -- 71
2020-11-02 07:00:00 13.3 6 Sudeste 22 Sur 0 -- -- 71
2020-11-02 06:00:00 13.6 7 Sur 25 Sur 0 -- -- 70
2020-11-02 05:00:00 13.8 7 Sur 30 Sudoeste 0 -- -- 70
2020-11-02 04:00:00 14.3 9 Sur 32 Sur 0 -- -- 67
2020-11-02 03:00:00 14.7 12 Sur 31 Oeste 0 -- -- 67
2020-11-02 02:00:00 14.2 6 Sudoeste 30 Sur 0 -- -- 71
2020-11-02 01:00:00 14.6 10 Sur 28 Sur 0 -- -- 73
2020-11-02 00:00:00 15.3 10 Sur 37 Sur 0 -- -- 71
2020-11-01 23:00:00 15.8 13 Sur 35 Sudoeste 0 -- -- 67
2020-11-01 22:00:00 15.3 8 Sur 40 Sur 0 -- -- 72
2020-11-01 21:00:00 15.6 11 Sur 31 Sudoeste 0 -- -- 70
2020-11-01 20:00:00 15.7 9 Sudoeste 30 Sur 0 -- -- 71
2020-11-01 19:00:00 15.9 7 Sur 26 Sur 0 -- -- 71
2020-11-01 18:00:00 16.4 8 Sur 21 Sur 0 -- -- 69
2020-11-01 17:00:00 16.8 6 Sur 19 Sur 0 -- -- 67
2020-11-01 16:00:00 17.1 6 Sur 17 Sudeste 0 -- -- 67
2020-11-01 15:00:00 17.9 5 Sudeste 23 Sur 0 -- -- 64
2020-11-01 14:00:00 18.2 6 Sudeste 28 Sudoeste 0 -- -- 64
2020-11-01 13:00:00 17 3 Nordeste 30 Sudoeste 0 -- -- 68
2020-11-01 12:00:00 16.2 9 Sudoeste 21 Sur 0 -- -- 67
2020-11-01 11:00:00 15.8 5 Oeste 19 Sudoeste 0 -- -- 68
2020-11-01 10:00:00 15.2 4 Sudoeste 14 Noroeste 0 -- -- 70
2020-11-01 09:00:00 14.9 5 Oeste 28 Oeste 0 -- -- 70
2020-11-01 08:00:00 14.6 10 Oeste 34 Sur 0 -- -- 70
2020-11-01 07:00:00 14.6 10 Sudoeste 29 Sudoeste 0 -- -- 72
2020-11-01 06:00:00 14.3 9 Sur 32 Sur 0 -- -- 74
2020-11-01 05:00:00 13.9 9 Sudoeste 25 Sudoeste 0 -- -- 76
2020-11-01 04:00:00 13.9 9 Sudoeste 30 Sudoeste 0 -- -- 73
2020-11-01 03:00:00 14.3 10 Sur 29 Sudoeste 0 -- -- 71
2020-11-01 02:00:00 14 9 Sudoeste 23 Sudoeste 0 -- -- 72
2020-11-01 01:00:00 14 10 Oeste 33 Sudoeste 0 -- -- 71
2020-11-01 00:00:00 13.9 10 Sudoeste 27 Oeste 0 -- -- 71
2020-10-31 23:00:00 13.6 9 Sur 26 Norte 0 -- -- 71
2020-10-31 22:00:00 13.8 9 Sudoeste 28 Sudoeste 0 -- -- 68
2020-10-31 21:00:00 13.7 8 Sudoeste 32 Oeste 0 -- -- 67
2020-10-31 20:00:00 13.5 10 Sudoeste 28 Sudoeste 0 -- -- 70
2020-10-31 19:00:00 14 5 Sur 22 Sudoeste 0 -- -- 67
2020-10-31 18:00:00 14.8 5 Sudoeste 17 Sudoeste 0 -- -- 65
2020-10-31 17:00:00 16.1 5 Sur 22 Sur 0 -- -- 63
2020-10-31 16:00:00 18 7 Sur 22 Sur 0 -- -- 55
2020-10-31 15:00:00 19 7 Sur 24 Sur 0 -- -- 51
2020-10-31 14:00:00 18.8 9 Sur 31 Sur 0 -- -- 45
2020-10-31 13:00:00 18.7 9 Sur 33 Sur 0 -- -- 42
2020-10-31 12:00:00 15.9 11 Sur 35 Sur 0 -- -- 50
2020-10-31 11:00:00 15.9 12 Sur 30 Sudoeste 0 -- -- 50
2020-10-31 10:00:00 15.2 8 Sudoeste 27 Sur 0 -- -- 52
2020-10-31 09:00:00 12.7 6 Sudoeste 33 Sur 0 -- -- 65
2020-10-31 08:00:00 11.6 4 Oeste 30 Sur 0 -- -- 63
2020-10-31 07:00:00 11.9 8 Sur 26 Sudeste 0 -- -- 66
2020-10-31 06:00:00 12.7 10 Sur 31 Sudoeste 0 -- -- 64
2020-10-31 05:00:00 12.7 10 Sur 38 Sudoeste 0 -- -- 63
2020-10-31 04:00:00 12.7 9 Sur 34 Sur 0 -- -- 57
2020-10-31 03:00:00 12.6 7 Sur 31 Sur 0 -- -- 64
2020-10-31 02:00:00 13.2 10 Sudeste 48 Sur 0 -- -- 63
2020-10-31 01:00:00 14 10 Sur 42 Sur 0 -- -- 48
2020-10-31 00:00:00 14.1 13 Sur 41 Sudoeste 0 -- -- 49
2020-10-30 23:00:00 12.1 9 Sudoeste 28 Sudoeste 0 -- -- 53
2020-10-30 22:00:00 9 2 Noroeste 11 Noroeste 0 -- -- 66
2020-10-30 21:00:00 8.8 2 Oeste 9 Oeste 0 -- -- 67
2020-10-30 20:00:00 9.2 0 Calma 6 Noroeste 0 -- -- 68
2020-10-30 19:00:00 10.2 2 Sudoeste 5 Noroeste 0 -- -- 66
2020-10-30 18:00:00 13.2 0 Calma 17 Sur 0 -- -- 56
2020-10-30 17:00:00 16.1 6 Sur 17 Sur 0 -- -- 40
2020-10-30 16:00:00 19.6 6 Sudeste 22 Sudeste 0 -- -- 32
2020-10-30 15:00:00 21.5 9 Sur 35 Sur 0 -- -- 19
2020-10-30 14:00:00 21.7 11 Sur 30 Sur 0 -- -- 17
2020-10-30 13:00:00 21.1 8 Sudeste 23 Sudoeste 0 -- -- 21
2020-10-30 12:00:00 20.2 7 Sudeste 25 Sur 0 -- -- 20
2020-10-30 11:00:00 16.5 5 Sudeste 13 Sur 0 -- -- 29
2020-10-30 10:00:00 11.9 0 Calma 4 Sur 0 -- -- 39
2020-10-30 09:00:00 9.3 0 Calma 4 Oeste 0 -- -- 45
2020-10-30 08:00:00 8.1 2 Oeste 5 Oeste 0 -- -- 43
2020-10-30 07:00:00 7.5 0 Calma 4 Oeste 0 -- -- 43
2020-10-30 06:00:00 8.4 0 Calma 6 Noroeste 0 -- -- 46
2020-10-30 05:00:00 8.1 0 Calma 6 Noroeste 0 -- -- 47
2020-10-30 04:00:00 8.4 2 Sudoeste 7 Noroeste 0 -- -- 41
2020-10-30 03:00:00 8.7 0 Calma 9 Noroeste 0 -- -- 39
2020-10-30 02:00:00 8.1 3 Sudoeste 9 Oeste 0 -- -- 50
2020-10-30 01:00:00 8.3 0 Calma 10 Noroeste 0 -- -- 40
2020-10-30 00:00:00 8.4 3 Noroeste 7 Sudoeste 0 -- -- 43
2020-10-29 23:00:00 8.4 2 Oeste 7 Oeste 0 -- -- 49
2020-10-29 22:00:00 9.2 2 Oeste 4 Sudoeste 0 -- -- 45
2020-10-29 21:00:00 9.2 0 Calma 5 Oeste 0 -- -- 61
2020-10-29 20:00:00 9.7 0 Calma 5 Sudoeste 0 -- -- 67
2020-10-29 19:00:00 10.1 0 Calma 4 Noroeste 0 -- -- 73
2020-10-29 18:00:00 11.5 0 Calma 5 Sur 0 -- -- 69
2020-10-29 17:00:00 13.8 2 Sudoeste 9 Sudoeste 0 -- -- 62
2020-10-29 16:00:00 17.4 4 Sudoeste 9 Sur 0 -- -- 52
2020-10-29 15:00:00 18.7 3 Sur 10 Sur 0 -- -- 50
2020-10-29 14:00:00 17.9 4 Sur 10 Sur 0 -- -- 54
2020-10-29 13:00:00 16.4 3 Este 8 Este 0 -- -- 58
2020-10-29 12:00:00 14 3 Este 9 Sudoeste 0 -- -- 69
2020-10-29 11:00:00 9.1 4 Este 8 Nordeste 0 -- -- 91
2020-10-29 10:00:00 5.9 0 Calma 4 Sur 0 -- -- 100
2020-10-29 09:00:00 4.4 2 Noroeste 5 Noroeste 0 -- -- 100
2020-10-29 08:00:00 4.3 0 Calma 5 Noroeste 0 -- -- 100
2020-10-29 07:00:00 4.7 0 Calma 5 Oeste 0 -- -- 99
2020-10-29 06:00:00 5.6 0 Calma 3 Sudoeste 0 -- -- 100
2020-10-29 05:00:00 5.5 0 Calma 2 Oeste 0 -- -- 100
2020-10-29 04:00:00 4.5 0 Calma 3 Oeste 0 -- -- 99
2020-10-29 03:00:00 4.8 0 Calma 3 Sudoeste 0 -- -- 99
2020-10-29 02:00:00 5.1 0 Calma 4 Sudoeste 0 -- -- 99
2020-10-29 01:00:00 5.3 0 Calma 4 Sur 0 -- -- 98
2020-10-29 00:00:00 5.9 0 Calma 6 Noroeste 0 -- -- 97
2020-10-28 23:00:00 6.7 0 Calma 5 Oeste 0 -- -- 96
2020-10-28 22:00:00 7 0 Calma 5 Sudoeste 0 -- -- 97
2020-10-28 21:00:00 7.8 0 Calma 4 Sudoeste 0 -- -- 94
2020-10-28 20:00:00 9 0 Calma 6 Sudoeste 0 -- -- 94
2020-10-28 19:00:00 9.5 2 Sudoeste 9 Sur 0 -- -- 92
2020-10-28 18:00:00 10.6 4 Sudoeste 8 Sudoeste 0 -- -- 86
2020-10-28 17:00:00 11.8 4 Sur 8 Sur 0 -- -- 78
2020-10-28 16:00:00 13.6 3 Sur 14 Sur 0 -- -- 72
2020-10-28 15:00:00 14.8 5 Sudoeste 13 Sudoeste 0 -- -- 67
2020-10-28 14:00:00 14.9 4 Sudoeste 17 Sudoeste 0 -- -- 65
2020-10-28 13:00:00 14.3 4 Este 12 Sur 0 -- -- 67
2020-10-28 12:00:00 12.6 4 Sur 13 Este 0 -- -- 72
2020-10-28 11:00:00 9.9 5 Nordeste 12 Nordeste 0 -- -- 86
2020-10-28 10:00:00 8 2 Sudoeste 6 Sudoeste 0 -- -- 97
2020-10-28 09:00:00 7 0 Calma 6 Noroeste 0 -- -- 98
2020-10-28 08:00:00 7 0 Calma 4 Noroeste 0 -- -- 95
2020-10-28 07:00:00 7.8 0 Calma 16 Sur 0 -- -- 95
2020-10-28 06:00:00 8.8 4 Sudoeste 18 Sur 0 -- -- 82
2020-10-28 05:00:00 9.5 5 Sudoeste 15 Sur 0 -- -- 79
2020-10-28 04:00:00 10.1 5 Sur 21 Sur 0 -- -- 77
2020-10-28 03:00:00 9.3 4 Sudoeste 24 Sur 0 -- -- 82
2020-10-28 02:00:00 10 4 Sudoeste 32 Sur 0 -- -- 78
2020-10-28 01:00:00 11.2 7 Sur 26 Sudoeste 0 -- -- 72
2020-10-28 00:00:00 11.2 6 Sur 35 Sudoeste 0 -- -- 75
2020-10-27 23:00:00 10.8 9 Sur 31 Sur 0 -- -- 80
2020-10-27 22:00:00 10.1 7 Sur 30 Este 0 -- -- 87
2020-10-27 21:00:00 10.2 6 Sur 23 Sudoeste 0 -- -- 86
2020-10-27 20:00:00 9.7 5 Sudoeste 24 Sudoeste 0 -- -- 87
2020-10-27 19:00:00 10 6 Sur 26 Sur 0 -- -- 85
2020-10-27 18:00:00 9.4 5 Sudoeste 21 Sur 0 -- -- 91
2020-10-27 17:00:00 9.2 3 Sudoeste 19 Sur 0.2 -- -- 92
2020-10-27 16:00:00 9.7 8 Sur 30 Sur 0 -- -- 84
2020-10-27 15:00:00 9.9 9 Sudoeste 37 Sudoeste 0 -- -- 80
2020-10-27 14:00:00 11 13 Sudoeste 41 Sudoeste 0.2 -- -- 74
2020-10-27 13:00:00 9.5 9 Oeste 29 Sudoeste 0.8 -- -- 85
2020-10-27 12:00:00 9.8 5 Sudoeste 40 Sur 0 -- -- 88
2020-10-27 11:00:00 9.7 8 Sur 30 Sudoeste 0 -- -- 80
2020-10-27 10:00:00 9 6 Sudoeste 20 Norte 0 -- -- 81
2020-10-27 09:00:00 6.7 5 Oeste 16 Noroeste 0 -- -- 84
2020-10-27 08:00:00 6.6 4 Noroeste 32 Sudoeste 0 -- -- 83
2020-10-27 07:00:00 6.5 10 Sudoeste 31 Sudoeste 0 -- -- 74
2020-10-27 06:00:00 5.9 4 Oeste 21 Sur 0 -- -- 79
2020-10-27 05:00:00 5 6 Sudoeste 15 Sudeste 0 -- -- 78
2020-10-27 04:00:00 4.9 2 Sudoeste 6 Oeste 0 -- -- 84
2020-10-27 03:00:00 5 2 Oeste 6 Oeste 0 -- -- 86
2020-10-27 02:00:00 5.5 3 Sudoeste 15 Sudoeste 0 -- -- 80
2020-10-27 01:00:00 5.7 5 Sudoeste 17 Nordeste 0 -- -- 75
2020-10-27 00:00:00 4.9 3 Oeste 12 Sur 0 -- -- 77
2020-10-26 23:00:00 5 5 Sudoeste 22 Sur 0 -- -- 78
2020-10-26 22:00:00 4.7 5 Sudoeste 18 Sudoeste 0 -- -- 75
2020-10-26 21:00:00 4 3 Sudoeste 25 Sur 0 -- -- 91
2020-10-26 20:00:00 5.9 7 Sudoeste 22 Sudeste 0 -- -- 81
2020-10-26 19:00:00 6.5 5 Sur 23 Noroeste 0 -- -- 73
2020-10-26 18:00:00 7.3 6 Sur 27 Sur 0 -- -- 66
2020-10-26 17:00:00 7.9 9 Sudoeste 30 Sudeste 0 -- -- 58
2020-10-26 16:00:00 8.6 7 Sur 26 Norte 0 -- -- 58
2020-10-26 15:00:00 7.9 10 Sur 28 Sur 0 -- -- 69
2020-10-26 14:00:00 9.9 13 Sudoeste 32 Sur -- -- -- 54
2020-10-26 13:00:00 10.3 6 Oeste 34 Oeste -- -- -- 52
2020-10-26 12:00:00 7.5 13 Noroeste 56 Noroeste 0 -- -- 66
2020-10-26 11:00:00 -- -- -- -- -- 0.2 -- -- --
2020-10-26 10:00:00 5.7 7 Sudoeste -- -- 0.2 -- -- 74
2020-10-26 09:00:00 5.1 7 Oeste 34 Noroeste 0 -- -- 72
2020-10-26 08:00:00 4.2 9 Este 24 Noroeste 0 -- -- 77
2020-10-26 07:00:00 2.5 2 Sudoeste 5 Sur 0.2 -- -- 96
2020-10-26 06:00:00 3.3 0 Calma 23 Noroeste 0.2 -- -- 92
2020-10-26 05:00:00 4.5 6 Sudoeste 35 Noroeste 0 -- -- 74
2020-10-26 04:00:00 4.6 8 Sudoeste 20 Oeste 0 -- -- 77
2020-10-26 03:00:00 4.6 6 Este 20 Este 0 -- -- 71
2020-10-26 02:00:00 3.8 9 Sudoeste 21 Sur 0 -- -- 82
2020-10-26 01:00:00 4.1 5 Sur 18 Sur 0 -- -- 80
2020-10-26 00:00:00 4.8 8 Sur 19 Sur 0 -- -- 75
2020-10-25 23:00:00 5.3 4 Sur 29 Norte 0 -- -- 70
2020-10-25 22:00:00 5.6 8 Noroeste 31 Noroeste 0 -- -- 61
2020-10-25 21:00:00 5.5 9 Sudoeste 32 Oeste 0 -- -- 74
2020-10-25 20:00:00 4.8 6 Sudoeste 22 Oeste 0 -- -- 79
2020-10-25 19:00:00 5 3 Nordeste 14 Sudoeste 0.6 -- -- 96
2020-10-25 18:00:00 6 4 Sudoeste 27 Noroeste 0.6 -- -- 93
2020-10-25 17:00:00 7.7 9 Sur 22 Sur 0.4 -- -- 86
2020-10-25 16:00:00 8.1 6 Sudeste 30 Sudeste 0.6 -- -- 91
2020-10-25 15:00:00 9 8 Sur 24 Sudoeste 2.8 -- -- 83
2020-10-25 14:00:00 11.1 7 Sudeste 31 Este 0 -- -- 72
2020-10-25 13:00:00 11.7 10 Sudeste 33 Este 0 -- -- 69
2020-10-25 12:00:00 9.8 10 Sur 25 Este 0.4 -- -- 80
2020-10-25 11:00:00 10 12 Sur 31 Sur 1.2 -- -- 79
2020-10-25 10:00:00 9.4 4 Este 14 Sudeste 0 -- -- 95
2020-10-25 09:00:00 9 3 Sudeste 11 Nordeste 1.2 -- -- 96
2020-10-25 08:00:00 9.2 7 Sur 19 Sudeste 1 -- -- 93
2020-10-25 07:00:00 9.6 7 Sudeste 23 Sur 1.2 -- -- 88
2020-10-25 06:00:00 9.3 5 Este 17 Sudeste 1.6 -- -- 94
2020-10-25 05:00:00 10.7 7 Sudeste 42 Este 0.2 -- -- 82
2020-10-25 04:00:00 11.1 8 Sudoeste 24 Nordeste 0 -- -- 75
2020-10-25 03:00:00 10.9 8 Sudeste 36 Sur 0.2 -- -- 79
2020-10-25 02:00:00 10.6 8 Sudeste 35 Este 0.2 -- -- 83
2020-10-25 01:00:00 12 9 Sudeste 38 Este 0 -- -- 70
2020-10-25 00:00:00 11.9 11 Nordeste 48 Nordeste 0 -- -- 69